Airfield :
LOGIN :

Register | Disclaimer

   EN    FR    IT 

 










Legend :    VFR   Marginal VFR   IFR   Intensive IFR   Very Intensive IFR
Visi :
Ceiling :
>= 8 km
>= 3000ft
5 to 8 km
1000 to 3000 ft
1500m to 5 km
500 to 1000 ft
800 to 1500m
200 to 500 ft
< 800m
< 200 ft
Symbols :   Thunderstorms  Fog  Heavy snow  Heavy precipitations  Wind > 20 kt
SIGMETs :     Misc.  Thunderstorms  Icing  Turbulence  Mountain Waves  Volcanic Ashes






- Airport Elevation : 215 ft
- IATA code : ABZ


EGPD - Aberdeen / Dyce

CURRENT METAR :
  • 060550Z AUTO 21016KT 9999 NCD 11/07 Q0999 NOSIG

EXPIRED METARs :
  • 060520Z AUTO 19017KT 9999 FEW022 BKN034 10/08 Q0999 NOSIG
  • 060450Z AUTO 18015KT 9999 SCT026 BKN033 BKN039 10/07 Q0998 NOSIG
  • 060420Z AUTO 18017KT 9999 BKN030 10/06 Q0998 NOSIG
  • 060350Z AUTO 17017KT 9999 SCT036 09/06 Q0998 NOSIG
  • 060320Z AUTO 18017KT 8000 -RA FEW040 09/06 Q0998 NOSIG

TAF TAF EGPD
Valid from the 06 at 06:00 until the 07 at 06:00 UTC


060455Z 0606/0706 20014KT 9999 SCT025
PROB40
TEMPO 0606/0617 22018G30KT
PROB30
TEMPO 0612/0619 8000 -SHRA
BECMG 0614/0617 26010KT
BECMG 0621/0624 20007KT



MET'MAP, your aeronautical weather chart ! - Copyright ORBIFLY December 2007 - Disclaimer

ORBIFLY MET'MAP TEAM :

Programming & Development : Alexandra Zaïnal
Concept & original design : Baudouin d'Aumeries
Assistance for programming : Marc-Olivier Méhu
Technical & hardware support : Manuel Goepfert

Contact : metmap@orbifly.com




SOURCES & CREDITS :

   NOAA